Time;durP1;ratioP1;P1;durP2;ratioP2;P2;SDS_P1;SDS_P2;PMS_P1;PMS_P2;Temp;Humidity;BMP_temperature;BMP_pressure;BME280_temperature;BME280_humidity;BME280_pressure;Samples;Min_cycle;Max_cycle;Signal;HPM_P1;HPM_P2
2022/01/25 00:26:30;;;;;;;50.00;31.23;;;5.10;99.90;;;;;;5154791;27;20054;-65
2022/01/25 00:29:15;;;;;;;53.13;33.67;;;5.00;99.90;;;;;;5139975;27;20521;-64
2022/01/25 00:31:41;;;;;;;;;;;5.00;99.90;;;;;;5128403;27;20126;-66
2022/01/25 00:34:07;;;;;;;51.33;34.30;;;5.00;99.90;;;;;;5137992;27;19916;-65
2022/01/25 00:36:33;;;;;;;52.45;33.60;;;4.90;99.90;;;;;;5137727;27;20031;-65
2022/01/25 00:39:04;;;;;;;52.15;32.42;;;4.90;99.90;;;;;;5137845;27;20035;-65
2022/01/25 00:41:30;;;;;;;51.15;32.03;;;4.90;99.90;;;;;;5130154;27;20167;-65
2022/01/25 00:43:57;;;;;;;51.33;31.38;;;4.80;99.90;;;;;;5158792;27;20121;-65
2022/01/25 00:46:23;;;;;;;51.08;32.20;;;4.80;99.90;;;;;;5157978;27;20039;-65
2022/01/25 00:48:53;;;;;;;53.58;32.80;;;4.90;99.90;;;;;;5158692;27;20117;-64
2022/01/25 00:54:27;;;;;;;51.42;31.73;;;4.90;99.90;;;;;;5137920;27;20043;-64
2022/01/25 00:56:54;;;;;;;47.55;30.02;;;4.90;99.90;;;;;;5137511;27;20042;-65
2022/01/25 00:59:26;;;;;;;49.80;31.13;;;4.90;99.90;;;;;;5137673;27;20047;-65
2022/01/25 01:01:54;;;;;;;52.03;33.85;;;4.90;99.90;;;;;;5151096;27;20042;-65
2022/01/25 01:04:21;;;;;;;49.38;33.00;;;4.80;99.90;;;;;;5158455;27;20043;-66
2022/01/25 01:06:47;;;;;;;54.05;34.20;;;4.80;99.90;;;;;;5158107;27;20175;-65
2022/01/25 01:09:17;;;;;;;50.80;33.40;;;4.80;99.90;;;;;;5158089;27;20034;-66
2022/01/25 01:11:58;;;;;;;48.25;31.77;;;4.70;99.90;;;;;;5145750;27;20064;-65
2022/01/25 01:15:19;;;;;;;53.05;32.17;;;4.70;99.90;;;;;;5137493;27;20085;-65
2022/01/25 01:44:02;;;;;;;56.03;36.05;;;4.80;99.90;;;;;;5136813;27;20043;-64
2022/01/25 01:49:02;;;;;;;55.58;36.15;;;4.70;99.90;;;;;;5136699;27;20459;-64
2022/01/25 01:51:36;;;;;;;53.45;34.53;;;4.70;99.90;;;;;;5109008;28;20189;-64
2022/01/25 01:54:09;;;;;;;51.80;33.17;;;4.70;99.90;;;;;;5116224;28;20110;-66
2022/01/25 01:56:35;;;;;;;55.10;35.75;;;4.70;99.90;;;;;;5115440;28;20608;-66
2022/01/25 01:59:04;;;;;;;52.38;33.22;;;4.70;99.90;;;;;;5116181;28;20040;-65
2022/01/25 02:01:31;;;;;;;56.75;33.83;;;4.70;99.90;;;;;;5125578;27;20035;-66
2022/01/25 02:03:59;;;;;;;53.85;34.45;;;4.80;99.90;;;;;;5136415;27;20039;-64
2022/01/25 02:06:25;;;;;;;56.70;35.47;;;4.70;99.90;;;;;;5136239;27;20363;-66
2022/01/25 02:08:51;;;;;;;53.95;34.65;;;4.60;99.90;;;;;;5136554;27;20039;-65
2022/01/25 02:11:17;;;;;;;55.25;35.00;;;4.60;99.90;;;;;;5127858;27;20040;-65
2022/01/25 02:13:43;;;;;;;49.90;32.75;;;4.60;99.90;;;;;;5115483;28;20050;-65
2022/01/25 02:16:17;;;;;;;51.05;31.05;;;4.70;99.90;;;;;;5114610;28;20047;-65
2022/01/25 02:24:11;;;;;;;51.53;31.10;;;4.60;99.90;;;;;;5156908;27;20214;-65
2022/01/25 02:26:37;;;;;;;53.33;32.95;;;4.50;99.90;;;;;;5138048;27;20494;-67
2022/01/25 02:29:03;;;;;;;55.00;33.80;;;4.60;99.90;;;;;;5156564;27;20049;-66
2022/01/25 02:31:28;;;;;;;52.47;32.45;;;4.50;99.90;;;;;;5128301;27;20039;-66
2022/01/25 02:33:54;;;;;;;54.20;34.17;;;4.50;99.90;;;;;;5135723;27;20058;-66
2022/01/25 02:36:27;;;;;;;56.70;34.63;;;4.60;99.90;;;;;;5135813;27;20035;-65
2022/01/25 02:38:55;;;;;;;53.97;33.53;;;4.50;99.90;;;;;;5135580;27;20444;-66
2022/01/25 02:41:21;;;;;;;49.80;32.67;;;4.50;99.90;;;;;;5136552;27;20110;-65
2022/01/25 02:43:48;;;;;;;54.28;34.10;;;4.50;99.90;;;;;;5135903;27;20035;-66
2022/01/25 02:48:57;;;;;;;54.65;33.55;;;4.60;99.90;;;;;;5135761;27;20074;-65
2022/01/25 02:51:36;;;;;;;55.70;33.83;;;4.60;99.90;;;;;;5143579;27;20157;-65
2022/01/25 02:54:03;;;;;;;54.45;33.05;;;4.60;99.90;;;;;;5156464;27;20114;-65
2022/01/25 02:56:29;;;;;;;53.08;33.03;;;4.60;99.90;;;;;;5155653;27;20121;-65
2022/01/25 02:58:55;;;;;;;52.28;33.35;;;4.60;99.90;;;;;;5155907;27;20389;-67
2022/01/25 03:01:22;;;;;;;54.20;33.72;;;4.50;99.90;;;;;;5147316;27;20451;-67
2022/01/25 03:03:49;;;;;;;56.20;33.10;;;4.50;99.90;;;;;;5135588;27;20122;-65
2022/01/25 03:06:16;;;;;;;54.88;33.42;;;4.50;99.90;;;;;;5134789;27;20418;-65
2022/01/25 03:08:42;;;;;;;56.22;34.53;;;4.50;99.90;;;;;;5135013;27;20376;-65
2022/01/25 03:11:08;;;;;;;52.53;32.42;;;4.50;99.90;;;;;;5141301;27;20030;-65
2022/01/25 03:13:47;;;;;;;53.63;32.50;;;4.50;99.90;;;;;;5155862;27;20062;-65
2022/01/25 03:16:22;;;;;;;57.47;33.53;;;4.50;99.90;;;;;;5155580;27;20030;-65
2022/01/25 03:18:49;;;;;;;53.90;32.83;;;4.50;99.90;;;;;;5155531;27;20051;-65
2022/01/25 03:23:53;;;;;;;56.88;33.60;;;4.60;99.90;;;;;;5135146;27;20114;-65
2022/01/25 03:26:21;;;;;;;53.00;33.05;;;4.50;99.90;;;;;;5134825;27;20042;-64
2022/01/25 03:28:47;;;;;;;56.50;34.97;;;4.50;99.90;;;;;;5134949;27;20031;-64
2022/01/25 03:31:13;;;;;;;56.70;34.45;;;4.50;99.90;;;;;;5141670;27;20073;-65
2022/01/25 03:33:39;;;;;;;53.25;33.90;;;4.50;99.90;;;;;;5155322;27;20432;-64
2022/01/25 03:36:07;;;;;;;55.83;34.30;;;4.50;99.90;;;;;;5155246;27;20078;-65
2022/01/25 03:38:37;;;;;;;57.35;33.92;;;4.60;99.90;;;;;;5155671;27;20097;-65
2022/01/25 03:41:10;;;;;;;52.83;34.10;;;4.50;99.90;;;;;;5115127;28;20050;-65
2022/01/25 03:43:36;;;;;;;54.85;33.03;;;4.50;99.90;;;;;;5134486;27;20496;-65
2022/01/25 03:46:20;;;;;;;52.22;32.67;;;4.60;99.90;;;;;;5134382;27;20118;-64
2022/01/25 03:51:30;;;;;;;54.40;32.80;;;4.50;99.90;;;;;;5143721;27;20066;-65
2022/01/25 03:53:56;;;;;;;55.15;33.22;;;4.50;99.90;;;;;;5137212;27;20400;-65
2022/01/25 03:56:23;;;;;;;57.35;34.58;;;4.40;99.90;;;;;;5154656;27;20046;-65
2022/01/25 03:58:50;;;;;;;55.83;33.15;;;4.40;99.90;;;;;;5155180;27;20043;-65
2022/01/25 04:01:16;;;;;;;58.92;35.65;;;4.50;99.90;;;;;;5129666;28;20041;-65
2022/01/25 04:03:52;;;;;;;55.22;34.97;;;4.40;99.90;;;;;;5137474;27;20035;-65
2022/01/25 04:06:20;;;;;;;56.03;34.30;;;4.40;99.90;;;;;;5138522;27;20046;-65
2022/01/25 04:08:47;;;;;;;55.63;32.85;;;4.50;99.90;;;;;;5120376;27;20055;-65
2022/01/25 04:11:12;;;;;;;55.60;33.53;;;4.50;99.90;;;;;;5126651;27;20045;-65
2022/01/25 04:13:38;;;;;;;59.63;34.53;;;4.50;99.90;;;;;;5159384;27;20077;-65
2022/01/25 04:16:11;;;;;;;57.47;34.47;;;4.50;99.90;;;;;;5158613;27;20447;-65
2022/01/25 04:18:53;;;;;;;57.42;33.65;;;4.50;99.90;;;;;;5158839;27;20046;-65
2022/01/25 04:21:42;;;;;;;53.58;33.60;;;4.50;99.90;;;;;;5151853;27;20031;-65
2022/01/25 04:26:55;;;;;;;59.47;34.63;;;4.50;99.90;;;;;;5138602;27;20135;-66
2022/01/25 04:29:21;;;;;;;60.35;35.10;;;4.50;99.90;;;;;;5138425;27;20043;-64
2022/01/25 04:31:47;;;;;;;56.92;35.03;;;4.40;99.90;;;;;;5149482;27;20071;-66
2022/01/25 04:34:26;;;;;;;58.20;34.83;;;4.40;99.90;;;;;;5159108;27;20153;-64
2022/01/25 04:48:50;;;;;;;61.55;34.22;;;4.40;99.90;;;;;;5159117;27;20046;-65
2022/01/25 04:53:39;;;;;;;61.80;36.47;;;4.60;99.90;;;;;;5158445;27;20043;-63
2022/01/25 04:56:14;;;;;;;62.58;38.08;;;4.60;99.90;;;;;;5158189;27;20043;-65
2022/01/25 04:58:49;;;;;;;58.25;35.90;;;4.60;99.90;;;;;;5158327;27;20042;-65
2022/01/25 05:01:16;;;;;;;58.20;35.83;;;4.60;99.90;;;;;;5151847;27;20501;-66
2022/01/25 05:03:55;;;;;;;58.40;36.65;;;4.60;99.90;;;;;;5137988;27;20042;-64
2022/01/25 05:06:22;;;;;;;59.28;37.35;;;4.50;99.90;;;;;;5119756;27;20043;-64
2022/01/25 05:08:52;;;;;;;56.72;34.78;;;4.60;99.90;;;;;;5137771;27;20098;-64
2022/01/25 05:18:45;;;;;;;60.78;34.75;;;4.40;99.90;;;;;;5157920;27;20047;-65
2022/01/25 05:23:56;;;;;;;56.10;35.75;;;4.30;99.90;;;;;;5137726;27;20119;-66
2022/01/25 05:26:23;;;;;;;57.67;34.75;;;4.30;99.90;;;;;;5137248;27;20035;-65
2022/01/25 05:28:49;;;;;;;57.35;34.88;;;4.20;99.90;;;;;;5119541;27;20042;-65
2022/01/25 05:31:15;;;;;;;57.90;35.22;;;4.20;99.90;;;;;;5143177;27;20034;-65
2022/01/25 05:33:40;;;;;;;60.92;37.33;;;4.20;99.90;;;;;;5158159;27;20107;-65
2022/01/25 05:36:06;;;;;;;58.25;35.85;;;4.20;99.90;;;;;;5139479;27;20042;-65
2022/01/25 05:38:32;;;;;;;64.60;37.30;;;4.20;99.90;;;;;;5157653;27;20046;-65
2022/01/25 05:41:02;;;;;;;59.55;36.22;;;4.20;99.90;;;;;;5154239;27;20038;-65
2022/01/25 05:46:14;;;;;;;59.55;36.35;;;4.10;99.90;;;;;;5118323;27;20472;-65
2022/01/25 05:48:40;;;;;;;61.28;34.75;;;4.10;99.90;;;;;;5137285;27;20085;-65
2022/01/25 05:51:05;;;;;;;61.03;35.50;;;4.10;99.90;;;;;;5141279;27;20066;-65
2022/01/25 05:53:31;;;;;;;58.97;35.25;;;4.20;99.90;;;;;;5131064;27;20122;-65
2022/01/25 05:55:57;;;;;;;59.03;37.13;;;4.10;99.90;;;;;;5137454;27;20043;-66
2022/01/25 05:58:23;;;;;;;60.28;35.08;;;4.20;99.90;;;;;;5136965;27;20091;-65
2022/01/25 06:00:48;;;;;;;61.40;36.15;;;4.20;99.90;;;;;;5137137;27;20039;-65
2022/01/25 06:03:14;;;;;;;60.90;36.63;;;4.30;99.90;;;;;;5142940;27;20023;-66
2022/01/25 06:05:40;;;;;;;64.75;37.38;;;4.30;99.90;;;;;;5156370;27;20091;-65
2022/01/25 06:08:06;;;;;;;58.92;35.03;;;4.20;99.90;;;;;;5156825;27;20526;-65
2022/01/25 06:10:32;;;;;;;59.60;36.83;;;4.20;99.90;;;;;;5156413;27;20043;-65
2022/01/25 06:12:58;;;;;;;60.65;36.75;;;4.30;99.90;;;;;;5136157;27;20487;-65
2022/01/25 06:15:24;;;;;;;58.83;36.15;;;4.30;99.90;;;;;;5128965;27;20030;-64
2022/01/25 06:17:50;;;;;;;60.63;36.08;;;4.30;99.90;;;;;;5134870;27;20066;-66
2022/01/25 06:20:16;;;;;;;63.33;36.63;;;4.30;99.90;;;;;;5135380;27;20046;-67
2022/01/25 06:22:42;;;;;;;63.25;37.08;;;4.30;99.90;;;;;;5134959;27;20049;-65
2022/01/25 06:25:10;;;;;;;63.45;37.85;;;4.30;99.90;;;;;;5134400;27;20463;-66
2022/01/25 06:27:44;;;;;;;57.80;36.33;;;4.40;99.90;;;;;;5135158;27;20118;-67
2022/01/25 06:30:16;;;;;;;59.33;37.38;;;4.40;99.90;;;;;;5135837;27;20030;-65
2022/01/25 06:32:43;;;;;;;62.20;37.58;;;4.30;99.90;;;;;;5134908;27;20039;-64
2022/01/25 06:35:10;;;;;;;66.18;38.22;;;4.40;99.90;;;;;;5135573;27;20091;-65
2022/01/25 06:37:35;;;;;;;59.10;37.65;;;4.30;99.90;;;;;;5136006;27;20046;-65
2022/01/25 06:40:03;;;;;;;57.63;36.40;;;4.30;99.90;;;;;;5135024;27;20019;-65
2022/01/25 06:42:31;;;;;;;62.95;38.05;;;4.40;99.90;;;;;;5116382;27;20104;-66
2022/01/25 06:45:00;;;;;;;62.97;37.38;;;4.40;99.90;;;;;;5135272;27;20086;-67
2022/01/25 06:47:26;;;;;;;60.22;37.55;;;4.40;99.90;;;;;;5134294;27;20035;-67
2022/01/25 06:49:52;;;;;;;60.88;38.10;;;4.30;99.90;;;;;;5135216;27;20360;-68
2022/01/25 06:52:17;;;;;;;63.65;37.88;;;4.30;99.90;;;;;;5134777;27;20072;-68
2022/01/25 06:54:43;;;;;;;62.65;37.85;;;4.30;99.90;;;;;;5135324;27;20092;-68
2022/01/25 06:57:12;;;;;;;63.53;37.53;;;4.20;99.90;;;;;;5134422;27;20340;-67
2022/01/25 06:59:38;;;;;;;63.65;38.50;;;4.20;99.90;;;;;;5135446;27;20035;-68
2022/01/25 07:02:05;;;;;;;66.30;37.80;;;4.20;99.90;;;;;;5125905;27;20050;-66
2022/01/25 07:04:30;;;;;;;60.90;35.97;;;4.10;99.90;;;;;;5134703;27;20667;-65
2022/01/25 07:06:56;;;;;;;63.63;36.95;;;4.10;99.90;;;;;;5132737;27;20178;-66
2022/01/25 07:09:22;;;;;;;63.30;37.15;;;4.10;99.90;;;;;;5078352;28;20051;-65
2022/01/25 07:11:48;;;;;;;62.60;35.72;;;4.10;99.90;;;;;;5079447;28;20058;-66
2022/01/25 07:14:14;;;;;;;64.18;36.22;;;4.10;99.90;;;;;;5095131;28;20437;-66
2022/01/25 07:16:39;;;;;;;63.63;35.85;;;4.20;99.90;;;;;;5112278;28;20180;-65
2022/01/25 07:19:05;;;;;;;65.28;37.85;;;4.20;99.90;;;;;;5112718;28;20066;-66
2022/01/25 07:21:31;;;;;;;61.85;35.70;;;4.20;99.90;;;;;;5113276;27;20054;-65
2022/01/25 07:23:56;;;;;;;66.38;35.85;;;4.20;99.90;;;;;;5114264;28;20097;-69
2022/01/25 07:26:22;;;;;;;61.63;36.58;;;4.30;99.90;;;;;;5130922;27;20058;-65
2022/01/25 07:28:48;;;;;;;60.95;37.40;;;4.30;99.90;;;;;;5134731;27;20035;-66
2022/01/25 07:31:14;;;;;;;63.42;36.45;;;4.30;99.90;;;;;;5129482;27;20031;-65
2022/01/25 07:33:39;;;;;;;61.97;36.30;;;4.30;99.90;;;;;;5122746;27;20053;-66
2022/01/25 07:36:05;;;;;;;60.90;35.55;;;4.30;99.90;;;;;;5134929;27;20078;-64
2022/01/25 07:38:31;;;;;;;65.13;37.30;;;4.40;99.90;;;;;;5133865;27;20046;-65
2022/01/25 07:40:57;;;;;;;62.47;36.05;;;4.30;99.90;;;;;;5131832;27;20043;-66
2022/01/25 07:43:23;;;;;;;60.63;34.53;;;4.40;99.90;;;;;;5132806;27;20095;-65
2022/01/25 07:45:52;;;;;;;61.58;37.30;;;4.40;99.90;;;;;;5134463;27;20340;-67
2022/01/25 07:48:19;;;;;;;64.30;37.35;;;4.40;99.90;;;;;;5134541;27;20043;-66
2022/01/25 07:50:45;;;;;;;65.30;37.20;;;4.40;99.90;;;;;;5133749;27;20126;-67
2022/01/25 07:53:11;;;;;;;60.90;35.85;;;4.40;99.90;;;;;;5095749;28;20146;-64
2022/01/25 07:55:36;;;;;;;63.88;35.78;;;4.40;99.90;;;;;;5116536;28;20478;-66
2022/01/25 07:58:03;;;;;;;64.32;36.55;;;4.40;99.90;;;;;;5134624;28;20126;-65
2022/01/25 08:00:28;;;;;;;64.90;36.20;;;4.40;99.90;;;;;;5116206;28;20054;-65
2022/01/25 08:02:54;;;;;;;63.83;36.63;;;4.50;99.90;;;;;;5114783;28;20032;-65
2022/01/25 08:05:24;;;;;;;61.85;37.30;;;4.40;99.90;;;;;;5114001;28;20448;-65
2022/01/25 08:07:49;;;;;;;69.38;37.60;;;4.40;99.90;;;;;;5113985;28;20035;-65
2022/01/25 08:10:15;;;;;;;66.22;37.60;;;4.40;99.90;;;;;;5095907;28;20035;-66
2022/01/25 08:12:41;;;;;;;64.43;37.67;;;4.50;99.90;;;;;;5130337;28;20035;-65
2022/01/25 08:15:08;;;;;;;61.38;36.33;;;4.50;99.90;;;;;;5134235;28;20061;-65
2022/01/25 08:17:34;;;;;;;61.33;36.40;;;4.50;99.90;;;;;;5115718;28;20047;-65
2022/01/25 08:20:00;;;;;;;65.07;37.20;;;4.50;99.90;;;;;;5098759;28;20051;-68
2022/01/25 08:22:25;;;;;;;61.67;35.85;;;4.40;99.90;;;;;;5128624;28;20055;-66
2022/01/25 08:24:52;;;;;;;61.67;36.72;;;4.40;99.90;;;;;;5134097;28;20027;-69
2022/01/25 08:27:20;;;;;;;62.92;37.05;;;4.40;99.90;;;;;;5134427;28;20313;-67
2022/01/25 08:29:50;;;;;;;63.20;36.50;;;4.40;99.90;;;;;;5114511;28;20156;-65
2022/01/25 08:32:16;;;;;;;63.80;36.75;;;4.40;99.90;;;;;;5125782;28;20463;-64
2022/01/25 08:34:42;;;;;;;64.88;38.03;;;4.40;99.90;;;;;;5113691;28;20079;-63
2022/01/25 08:37:07;;;;;;;57.88;34.63;;;4.40;99.90;;;;;;5113746;28;20082;-64
2022/01/25 08:39:33;;;;;;;63.55;37.03;;;4.40;99.90;;;;;;5113429;28;20084;-65
2022/01/25 08:41:59;;;;;;;62.42;35.45;;;4.30;99.90;;;;;;5123696;28;20455;-65
2022/01/25 08:44:25;;;;;;;60.30;34.78;;;4.40;99.90;;;;;;5134062;28;20050;-65
2022/01/25 08:46:51;;;;;;;57.15;33.42;;;4.40;99.90;;;;;;5134112;28;20084;-65
2022/01/25 08:49:16;;;;;;;64.15;36.17;;;4.40;99.90;;;;;;5136312;27;20039;-65
2022/01/25 08:51:42;;;;;;;62.15;35.10;;;4.40;99.90;;;;;;5129380;27;20130;-64
2022/01/25 08:54:08;;;;;;;67.70;37.30;;;4.30;99.90;;;;;;5117414;28;20043;-65
2022/01/25 08:56:34;;;;;;;57.72;34.30;;;4.40;99.90;;;;;;5116967;28;20039;-64
2022/01/25 08:59:00;;;;;;;58.28;33.13;;;4.30;99.90;;;;;;5099013;28;20146;-64
2022/01/25 09:01:26;;;;;;;58.80;34.70;;;4.40;99.90;;;;;;5104423;27;20108;-64
2022/01/25 09:03:54;;;;;;;57.83;34.85;;;4.40;99.90;;;;;;5137662;27;20180;-64
2022/01/25 09:06:20;;;;;;;63.40;35.15;;;4.40;99.90;;;;;;5137414;27;20043;-65
2022/01/25 09:08:46;;;;;;;62.40;34.45;;;4.40;99.90;;;;;;5137878;27;20043;-65
2022/01/25 09:11:12;;;;;;;59.65;34.28;;;4.50;99.90;;;;;;5133238;27;20415;-64
2022/01/25 09:13:39;;;;;;;63.42;34.95;;;4.50;99.90;;;;;;5116890;28;20515;-64
2022/01/25 09:16:06;;;;;;;64.70;35.13;;;4.50;99.90;;;;;;5103665;27;20038;-64
2022/01/25 09:18:32;;;;;;;64.18;34.33;;;4.50;99.90;;;;;;5136950;27;20058;-65
2022/01/25 09:20:58;;;;;;;62.75;35.05;;;4.50;99.90;;;;;;5136227;27;20440;-65
2022/01/25 09:23:25;;;;;;;60.40;33.83;;;4.60;99.90;;;;;;5135844;27;20027;-63
2022/01/25 09:25:52;;;;;;;65.03;34.20;;;4.50;99.90;;;;;;5122181;27;20460;-65
2022/01/25 09:28:18;;;;;;;60.80;33.28;;;4.60;99.90;;;;;;5116774;28;20040;-65
2022/01/25 09:30:44;;;;;;;61.38;34.33;;;4.50;99.90;;;;;;5116224;28;20453;-65
2022/01/25 09:33:11;;;;;;;60.45;34.17;;;4.50;99.90;;;;;;5129088;27;20036;-66
2022/01/25 09:35:36;;;;;;;62.58;34.22;;;4.50;99.90;;;;;;5116640;28;20051;-65
2022/01/25 09:38:03;;;;;;;66.20;35.92;;;4.60;99.90;;;;;;5116103;28;20039;-65
2022/01/25 09:40:29;;;;;;;60.15;33.40;;;4.50;99.90;;;;;;5116191;28;20397;-65
2022/01/25 09:42:57;;;;;;;61.72;33.60;;;4.50;99.90;;;;;;5116551;27;20039;-64
2022/01/25 09:45:23;;;;;;;56.08;32.33;;;4.50;99.90;;;;;;5136327;27;20051;-65
2022/01/25 09:47:50;;;;;;;58.72;34.75;;;4.50;99.90;;;;;;5136696;27;20158;-65
2022/01/25 09:50:16;;;;;;;61.15;35.38;;;4.60;99.90;;;;;;5118779;27;20039;-66
2022/01/25 09:52:43;;;;;;;58.78;32.67;;;4.60;99.90;;;;;;5101870;28;20035;-65
2022/01/25 09:55:12;;;;;;;62.75;32.67;;;4.60;99.90;;;;;;5116173;28;20062;-65
2022/01/25 09:57:37;;;;;;;62.20;34.40;;;4.70;99.90;;;;;;5115740;28;20043;-65
2022/01/25 10:00:06;;;;;;;57.13;32.13;;;4.70;99.90;;;;;;5096667;28;20100;-65
2022/01/25 10:03:23;;;;;;;63.40;34.50;;;4.70;99.90;;;;;;5129785;27;20031;-66
2022/01/25 10:05:51;;;;;;;60.92;32.40;;;4.60;99.90;;;;;;5136509;27;20061;-64
2022/01/25 10:08:24;;;;;;;61.30;33.90;;;4.60;99.90;;;;;;5136511;27;20062;-64
2022/01/25 10:10:54;;;;;;;57.40;32.00;;;4.60;99.90;;;;;;5117814;27;20066;-65
2022/01/25 10:13:36;;;;;;;61.13;33.28;;;4.60;99.90;;;;;;5097254;28;20035;-66
2022/01/25 10:16:05;;;;;;;60.17;33.83;;;4.70;99.90;;;;;;5115530;28;20050;-65
2022/01/25 10:18:47;;;;;;;53.67;31.65;;;4.60;99.90;;;;;;5114976;28;20062;-66
2022/01/25 10:21:22;;;;;;;54.65;31.98;;;4.60;99.90;;;;;;5118271;27;20380;-65
2022/01/25 10:24:06;;;;;;;59.00;32.72;;;4.70;99.90;;;;;;5136177;27;20035;-65
2022/01/25 10:26:39;;;;;;;62.80;35.17;;;4.80;99.90;;;;;;5135742;27;20394;-66
2022/01/25 10:29:06;;;;;;;59.90;33.30;;;4.70;99.90;;;;;;5135934;27;20046;-65
2022/01/25 10:31:44;;;;;;;59.80;33.83;;;4.70;99.90;;;;;;5129203;27;20032;-65
2022/01/25 10:34:12;;;;;;;61.90;34.03;;;4.80;99.90;;;;;;5130717;27;20455;-65
2022/01/25 10:36:49;;;;;;;56.38;33.13;;;4.80;99.90;;;;;;5135778;27;20081;-65
2022/01/25 10:39:32;;;;;;;60.00;32.28;;;4.70;99.90;;;;;;5117571;27;20079;-66
2022/01/25 10:42:10;;;;;;;59.80;31.70;;;4.80;99.90;;;;;;5125574;27;20101;-66
2022/01/25 10:44:52;;;;;;;63.30;34.03;;;4.80;99.90;;;;;;5097310;28;20118;-66
2022/01/25 10:47:35;;;;;;;66.70;33.72;;;4.80;99.90;;;;;;5114794;27;20457;-65
2022/01/25 10:50:23;;;;;;;61.85;31.77;;;4.80;99.90;;;;;;5125406;27;20039;-66
2022/01/25 10:53:15;;;;;;;60.38;33.42;;;4.80;99.90;;;;;;5134558;27;20424;-65
2022/01/25 10:55:53;;;;;;;61.08;33.10;;;4.80;99.90;;;;;;5135287;27;20050;-65
2022/01/25 10:58:19;;;;;;;58.42;31.40;;;4.80;99.90;;;;;;5135338;27;20360;-65
2022/01/25 11:00:49;;;;;;;59.72;31.95;;;4.80;99.90;;;;;;5135338;27;20036;-66
2022/01/25 11:03:27;;;;;;;54.33;31.48;;;4.80;99.90;;;;;;5134361;27;20363;-66
2022/01/25 11:05:53;;;;;;;55.65;30.45;;;4.80;99.90;;;;;;5135418;27;20043;-65
2022/01/25 11:08:21;;;;;;;57.17;31.92;;;4.80;99.90;;;;;;5135522;27;20038;-66
2022/01/25 11:10:54;;;;;;;58.30;32.08;;;4.90;99.90;;;;;;5117205;27;20112;-65
2022/01/25 11:13:35;;;;;;;56.97;32.03;;;4.80;99.90;;;;;;5116702;27;20051;-65
2022/01/25 11:16:06;;;;;;;62.95;32.67;;;4.90;99.90;;;;;;5134832;27;20163;-65
2022/01/25 11:18:33;;;;;;;55.50;31.42;;;4.90;99.90;;;;;;5134486;27;20387;-65
2022/01/25 11:21:02;;;;;;;61.10;32.63;;;4.90;99.90;;;;;;5133394;27;20362;-66
2022/01/25 11:23:31;;;;;;;63.22;33.90;;;4.90;99.90;;;;;;5096377;28;20090;-65
2022/01/25 11:26:00;;;;;;;61.38;34.33;;;4.90;99.90;;;;;;5114053;28;20567;-65
2022/01/25 11:28:25;;;;;;;62.33;33.90;;;4.90;99.90;;;;;;5114305;28;20053;-65
2022/01/25 11:30:52;;;;;;;57.15;32.28;;;4.90;99.90;;;;;;5114245;27;20039;-64
2022/01/25 11:33:20;;;;;;;57.40;33.92;;;5.00;99.90;;;;;;5126103;27;20046;-65
2022/01/25 11:35:48;;;;;;;58.42;33.55;;;5.00;99.90;;;;;;5127533;27;20039;-65
2022/01/25 11:38:14;;;;;;;57.55;33.10;;;5.00;99.90;;;;;;5134367;27;20039;-65
2022/01/25 11:40:46;;;;;;;58.90;32.05;;;5.00;99.90;;;;;;5129805;27;20042;-68
2022/01/25 11:43:16;;;;;;;56.47;31.50;;;5.00;99.90;;;;;;5097664;28;20044;-65
2022/01/25 11:45:48;;;;;;;57.58;33.13;;;5.00;99.90;;;;;;5113521;28;20047;-65
2022/01/25 11:48:18;;;;;;;57.55;33.67;;;5.10;99.90;;;;;;5113471;28;20035;-67
2022/01/25 11:50:44;;;;;;;61.28;34.33;;;5.10;99.90;;;;;;5113565;28;20400;-66
2022/01/25 11:53:17;;;;;;;57.85;31.42;;;5.00;99.90;;;;;;5113692;28;20024;-64
2022/01/25 11:55:48;;;;;;;55.45;31.70;;;5.00;99.90;;;;;;5113290;28;20047;-65
2022/01/25 11:58:16;;;;;;;60.17;33.13;;;5.00;99.90;;;;;;5113479;28;20081;-65
2022/01/25 12:00:54;;;;;;;58.75;31.92;;;5.10;99.90;;;;;;5113277;28;20047;-64
2022/01/25 12:03:40;;;;;;;55.90;32.20;;;5.10;99.90;;;;;;5118243;28;20031;-63
2022/01/25 12:06:28;;;;;;;56.78;32.28;;;5.00;99.90;;;;;;5133799;28;20028;-68
2022/01/25 12:09:42;;;;;;;62.13;34.78;;;5.00;99.90;;;;;;5133016;28;20360;-65
2022/01/25 12:12:07;;;;;;;58.03;31.83;;;5.00;99.90;;;;;;5129451;28;20356;-66
2022/01/25 12:14:50;;;;;;;56.53;30.25;;;5.00;99.90;;;;;;5133395;28;20167;-68
2022/01/25 12:17:27;;;;;;;57.30;31.13;;;5.00;99.90;;;;;;5132659;28;20058;-68
2022/01/25 12:19:59;;;;;;;59.88;32.03;;;5.10;99.90;;;;;;5133770;28;20047;-68
2022/01/25 12:25:22;;;;;;;58.17;31.02;;;5.00;99.90;;;;;;5137235;27;20031;-65
2022/01/25 12:27:55;;;;;;;57.88;30.92;;;5.00;99.90;;;;;;5136656;27;20039;-66
2022/01/25 12:30:39;;;;;;;56.20;31.75;;;5.00;99.90;;;;;;5138151;27;20406;-65
2022/01/25 12:33:18;;;;;;;56.53;30.85;;;5.00;99.90;;;;;;5112401;28;20627;-66
2022/01/25 12:36:02;;;;;;;55.15;31.95;;;4.90;99.90;;;;;;5129694;27;20035;-65
2022/01/25 12:38:51;;;;;;;56.83;32.00;;;5.00;99.90;;;;;;5120061;27;20452;-65
2022/01/25 12:41:21;;;;;;;60.72;30.33;;;4.90;99.90;;;;;;5136828;27;20032;-65
2022/01/25 12:43:55;;;;;;;58.78;31.92;;;4.90;99.90;;;;;;5137827;27;20039;-65
2022/01/25 12:46:24;;;;;;;59.35;30.80;;;4.90;99.90;;;;;;5137985;27;20034;-66
2022/01/25 12:48:51;;;;;;;60.78;31.10;;;4.90;99.90;;;;;;5137939;27;20043;-65
2022/01/25 12:51:23;;;;;;;56.78;31.05;;;5.00;99.90;;;;;;5134543;27;20039;-64
2022/01/25 12:53:53;;;;;;;54.50;28.88;;;4.90;99.90;;;;;;5117132;28;20496;-66
2022/01/25 12:56:26;;;;;;;58.20;28.67;;;5.00;99.90;;;;;;5116961;28;20491;-67
2022/01/25 12:58:55;;;;;;;56.60;30.00;;;4.90;99.90;;;;;;5098957;28;20043;-65
2022/01/25 13:01:23;;;;;;;53.45;29.20;;;5.00;99.90;;;;;;5119632;27;20064;-64
2022/01/25 13:03:52;;;;;;;54.42;29.85;;;5.00;99.90;;;;;;5137659;27;20042;-64
2022/01/25 13:06:23;;;;;;;54.85;30.13;;;5.00;99.90;;;;;;5137995;27;20039;-65
2022/01/25 13:09:09;;;;;;;53.17;29.92;;;5.00;99.90;;;;;;5119405;27;20087;-65
2022/01/25 13:17:17;;;;;;;58.55;29.02;;;4.90;99.90;;;;;;5116597;28;20168;-66
2022/01/25 13:19:52;;;;;;;56.33;31.00;;;4.80;99.90;;;;;;5098290;28;20471;-63
2022/01/25 13:22:23;;;;;;;57.47;30.05;;;4.80;99.90;;;;;;5127528;27;20034;-63
2022/01/25 13:27:47;;;;;;;57.03;28.20;;;4.80;99.90;;;;;;5137153;27;20047;-64
2022/01/25 13:33:00;;;;;;;56.55;30.10;;;4.80;99.90;;;;;;5124796;27;20054;-66
2022/01/25 13:35:31;;;;;;;56.75;29.98;;;4.80;99.90;;;;;;5137026;27;20038;-65
2022/01/25 13:38:16;;;;;;;49.55;29.15;;;4.80;99.90;;;;;;5137170;27;20031;-65
2022/01/25 13:46:37;;;;;;;53.08;29.67;;;4.90;99.90;;;;;;5116567;28;20079;-64
2022/01/25 13:49:12;;;;;;;56.92;30.83;;;4.80;99.90;;;;;;5116469;28;20027;-65
2022/01/25 13:51:42;;;;;;;59.40;29.45;;;4.90;99.90;;;;;;5121203;27;20368;-65
2022/01/25 13:54:10;;;;;;;56.35;29.20;;;4.90;99.90;;;;;;5136922;27;20043;-64
2022/01/25 13:56:36;;;;;;;56.05;28.70;;;4.90;99.90;;;;;;5136707;27;20047;-64
2022/01/25 13:59:04;;;;;;;55.90;27.33;;;4.90;99.90;;;;;;5136401;27;20035;-65
2022/01/25 14:01:32;;;;;;;56.08;28.20;;;4.80;99.90;;;;;;5135727;27;20038;-65
2022/01/25 14:04:09;;;;;;;57.17;28.83;;;4.90;99.90;;;;;;5136481;27;20035;-64
2022/01/25 14:06:40;;;;;;;56.33;29.08;;;4.80;99.90;;;;;;5118234;27;20079;-65
2022/01/25 14:09:15;;;;;;;61.30;30.85;;;4.80;99.90;;;;;;5136375;27;20039;-65
2022/01/25 14:25:29;;;;;;;59.03;29.90;;;4.80;99.90;;;;;;5117662;27;20458;-65
2022/01/25 14:27:57;;;;;;;54.63;29.25;;;4.80;99.90;;;;;;5100893;27;20039;-65
2022/01/25 14:30:24;;;;;;;57.17;29.75;;;4.70;99.90;;;;;;5117995;27;20100;-65
2022/01/25 14:33:02;;;;;;;53.53;29.88;;;4.70;99.90;;;;;;5138918;27;20034;-64
2022/01/25 14:35:31;;;;;;;56.42;28.83;;;4.70;99.90;;;;;;5156717;27;20099;-65
2022/01/25 14:37:57;;;;;;;56.15;29.48;;;4.80;99.90;;;;;;5156796;27;20035;-65
2022/01/25 14:40:23;;;;;;;58.15;28.80;;;4.80;99.90;;;;;;5156408;27;20084;-65
2022/01/25 14:42:49;;;;;;;52.70;28.02;;;4.80;99.90;;;;;;5140079;27;20126;-65
2022/01/25 14:45:20;;;;;;;53.00;28.15;;;4.80;99.90;;;;;;5117362;27;20078;-65
2022/01/25 14:47:48;;;;;;;52.95;27.95;;;4.80;99.90;;;;;;5135157;27;20043;-65
2022/01/25 14:50:26;;;;;;;55.47;27.42;;;4.80;99.90;;;;;;5135676;27;20122;-65
2022/01/25 14:53:02;;;;;;;54.85;28.55;;;4.80;99.90;;;;;;5134682;27;20050;-65
2022/01/25 14:55:29;;;;;;;53.67;28.20;;;4.80;99.90;;;;;;5135562;27;20038;-64
2022/01/25 14:58:21;;;;;;;56.50;28.67;;;4.70;99.90;;;;;;5135550;27;20031;-63
2022/01/25 15:00:52;;;;;;;52.35;27.75;;;4.70;99.90;;;;;;5134404;27;20046;-66
2022/01/25 15:03:19;;;;;;;53.20;29.90;;;4.80;99.90;;;;;;5135063;27;20114;-65
2022/01/25 15:05:46;;;;;;;52.83;28.52;;;4.70;99.90;;;;;;5117149;27;20039;-66